Terminal Aerodrome Forecast
Issued by NWS

Home | Current Version | Previous Version | Graphics & Text | Print | Product List | Glossary On
Versions: 1 2 3 4 5 6 7 8 9 10 11 12 13
378
FTUS43 KICT 041722
TAFSLN
TAF
KSLN 041722Z 0418/0518 35014G20KT P6SM SKC
     FM050000 36007KT P6SM SKC
     FM050500 VRB03KT P6SM SKC=

USA.gov is the U.S. government's official web portal to all federal, state and local government web resources and services.